createdAt,value
2019-03-13T00:02:57.121Z,14.27
2019-03-13T00:12:58.375Z,7.13
2019-03-13T00:22:59.665Z,5.80
2019-03-13T00:33:01.341Z,6.00
2019-03-13T00:43:03.477Z,6.17
2019-03-13T00:53:05.005Z,5.77
2019-03-13T01:03:06.333Z,5.50
2019-03-13T01:13:07.682Z,5.03
2019-03-13T01:23:09.002Z,5.30
2019-03-13T01:33:10.363Z,4.33
2019-03-13T01:43:12.429Z,4.90
2019-03-13T01:53:13.788Z,4.83
2019-03-13T02:03:15.042Z,5.03
2019-03-13T02:13:16.353Z,4.03
2019-03-13T02:23:17.625Z,4.67
2019-03-13T02:33:18.902Z,4.50
2019-03-13T02:43:20.257Z,4.50
2019-03-13T02:53:21.737Z,4.67
2019-03-13T03:03:23.058Z,4.20
2019-03-13T03:13:24.397Z,3.87
2019-03-13T03:23:25.741Z,4.03
2019-03-13T03:33:27.159Z,4.30
2019-03-13T03:43:39.955Z,4.53
2019-03-13T03:53:29.718Z,3.97
2019-03-13T04:03:31.772Z,4.73
2019-03-13T04:13:33.054Z,5.17
2019-03-13T04:23:34.351Z,5.10
2019-03-13T04:33:35.638Z,5.10
2019-03-13T04:43:36.925Z,6.53
2019-03-13T04:53:38.204Z,5.00
2019-03-13T05:03:39.490Z,5.10
2019-03-13T05:13:40.777Z,7.80
2019-03-13T05:23:42.053Z,10.57
2019-03-13T05:33:43.334Z,9.57
2019-03-13T05:43:44.599Z,8.53
2019-03-13T05:53:46.631Z,6.10
2019-03-13T06:03:47.900Z,6.87
2019-03-13T06:13:50.118Z,6.23
2019-03-13T06:23:52.186Z,7.77
2019-03-13T06:33:53.543Z,5.70
2019-03-13T06:43:55.581Z,4.77
2019-03-13T06:54:02.276Z,5.40
2019-03-13T07:04:03.554Z,4.33
2019-03-13T07:14:04.841Z,3.93
2019-03-13T07:24:06.130Z,5.03
2019-03-13T07:34:07.396Z,4.40
2019-03-13T07:44:08.654Z,6.77
2019-03-13T07:54:10.682Z,4.70
2019-03-13T08:04:11.986Z,4.70
2019-03-13T08:14:13.280Z,4.40
2019-03-13T08:24:14.662Z,4.30
2019-03-13T08:34:15.939Z,3.50
2019-03-13T08:44:17.232Z,4.17
2019-03-13T08:54:18.522Z,3.97
2019-03-13T09:04:19.823Z,4.13
2019-03-13T09:14:21.121Z,3.60
2019-03-13T09:24:22.408Z,2.90
2019-03-13T15:34:13.145Z,2.53
2019-03-13T15:44:15.202Z,6.00
2019-03-13T15:54:17.253Z,7.93
2019-03-13T16:14:26.451Z,7.97
2019-03-13T16:44:42.286Z,8.37
2019-03-13T16:54:43.612Z,8.80
2019-03-13T17:04:44.982Z,10.90
2019-03-13T17:14:46.367Z,17.80
2019-03-13T17:24:53.419Z,44.67
2019-03-13T17:34:55.470Z,33.97
2019-03-13T17:44:56.764Z,25.60
2019-03-13T17:54:58.059Z,18.33
2019-03-13T18:04:59.387Z,15.13
2019-03-13T18:15:00.712Z,13.83
2019-03-13T18:25:02.741Z,12.77
2019-03-13T18:35:04.032Z,12.13
2019-03-13T18:45:06.094Z,12.17
2019-03-13T18:55:07.345Z,12.23
2019-03-13T19:05:08.608Z,12.63
2019-03-13T19:15:09.902Z,10.97
2019-03-13T19:25:11.188Z,5.60
2019-03-13T19:35:12.473Z,5.77
2019-03-13T19:45:13.804Z,6.97
2019-03-13T19:55:15.079Z,6.23
2019-03-13T20:05:16.388Z,7.17
2019-03-13T20:15:17.645Z,7.47
2019-03-13T20:25:18.951Z,8.20
2019-03-13T20:35:20.210Z,9.83
2019-03-13T20:45:21.473Z,10.47
2019-03-13T20:55:23.506Z,10.53
2019-03-13T21:05:25.599Z,9.70
2019-03-13T21:15:26.889Z,11.47
2019-03-13T21:25:28.201Z,20.57
2019-03-13T21:35:30.608Z,19.50
2019-03-13T21:45:41.101Z,14.73
2019-03-13T21:55:36.106Z,12.93
2019-03-13T22:05:38.149Z,13.40
2019-03-13T22:25:45.914Z,14.53
2019-03-13T22:35:47.938Z,14.30
2019-03-13T22:45:49.974Z,14.80
2019-03-13T22:55:51.240Z,14.63
2019-03-13T23:05:53.301Z,16.07
2019-03-13T23:15:54.575Z,15.63
2019-03-13T23:25:55.847Z,17.07
2019-03-13T23:35:57.889Z,15.90
2019-03-13T23:45:59.162Z,16.87
2019-03-13T23:56:01.209Z,22.70
